Pagrindinis puslapis
METAR-TAF:

METAR-TAF

Oro uostai :

Akaba, Jordanija

platuma: 29-38N, ilguma: 035-01E, Aukštis: 53 m

Dabartinis oras

Ataskaita buvo paskelbta 58 minutes, ne 11:00 UTC
Vėjas 6 kt iš Pietų/Pietvakarių
Temperatūra 23°C
Drėgmė 23%
Slėgis 1015 hPa
Matomumas 10 km arba daugiau
nėra debesų žemiau 1500 m ir nėra kamuolinių lietaus debesų

METAR: OJAQ 271100Z 20006KT CAVOK 23/01 Q1015 NOSIG

Laikas: 13:58 (11:58 UTC)

Prognozė

Ataskaita buvo paskelbta 1 valandą ir 19 minutes, ne 10:39 UTC
Prognozė galioja nuo 27 metu 12 UTC su 28 metu 18 UTC
Vėjas 8 kt iš Pietų
Matomumas: 5000 m
migla
Tikimybė 30% :
Laikinai
nuo 27 metu 12 UTC su 27 metu 16 UTC
Vėjas 15 kt iš Pietų
Matomumas: 3000 m
dulkės

TAF: OJAQ 271039Z 2712/2818 18008KT 5000 HZ NSC PROB30 TEMPO 2712/2716 19015KT 3000 DU

Orai ataskaitas ir orų prognozės (METAR, TAF).

turimą stotys yra geltonos ir raudonos taškus žemėlapyje.

Perkelti pele per norėdami pamatyti stoties vardą.

Tada spustelėkite, norėdami matyti oro stebėjimo ir prognozės.

Norėdami pakeisti žemėlapį: spustelėkite ant žalios mygtukų su juodo kryžiaus žemyn,; žalią mygtuką su brūkšneliu, jei norite nutolinti; arba žalių rodyklių gretimoms žemėlapius.


METAR-TAF: